sensor_id;sensor_type;location;lat;lon;timestamp;P1;durP1;ratioP1;P2;durP2;ratioP2
76935;SDS011;65881;52.438;16.744;2023-12-20T00:01:00;7.18;;;4.32;;
76935;SDS011;65881;52.438;16.744;2023-12-20T00:03:26;10.10;;;5.47;;
76935;SDS011;65881;52.438;16.744;2023-12-20T00:05:51;8.48;;;5.32;;
76935;SDS011;65881;52.438;16.744;2023-12-20T00:08:17;5.85;;;4.18;;
76935;SDS011;65881;52.438;16.744;2023-12-20T00:10:43;8.40;;;5.07;;
76935;SDS011;65881;52.438;16.744;2023-12-20T00:13:12;9.70;;;5.15;;
76935;SDS011;65881;52.438;16.744;2023-12-20T00:15:38;4.15;;;3.47;;
76935;SDS011;65881;52.438;16.744;2023-12-20T00:18:03;9.43;;;5.28;;
76935;SDS011;65881;52.438;16.744;2023-12-20T00:20:31;6.93;;;4.50;;
76935;SDS011;65881;52.438;16.744;2023-12-20T00:22:57;7.75;;;4.75;;
76935;SDS011;65881;52.438;16.744;2023-12-20T00:25:23;7.60;;;5.55;;
76935;SDS011;65881;52.438;16.744;2023-12-20T00:27:49;6.72;;;4.20;;
76935;SDS011;65881;52.438;16.744;2023-12-20T00:30:15;6.30;;;3.97;;
76935;SDS011;65881;52.438;16.744;2023-12-20T00:32:40;6.43;;;4.60;;
76935;SDS011;65881;52.438;16.744;2023-12-20T00:35:14;6.65;;;4.32;;
76935;SDS011;65881;52.438;16.744;2023-12-20T00:37:41;7.32;;;4.72;;
76935;SDS011;65881;52.438;16.744;2023-12-20T00:40:07;6.53;;;4.78;;
76935;SDS011;65881;52.438;16.744;2023-12-20T00:42:33;6.97;;;4.63;;
76935;SDS011;65881;52.438;16.744;2023-12-20T00:44:59;7.47;;;4.90;;
76935;SDS011;65881;52.438;16.744;2023-12-20T00:47:25;6.57;;;4.25;;
76935;SDS011;65881;52.438;16.744;2023-12-20T00:49:51;8.27;;;5.38;;
76935;SDS011;65881;52.438;16.744;2023-12-20T00:52:17;8.35;;;4.68;;
76935;SDS011;65881;52.438;16.744;2023-12-20T00:54:43;9.25;;;5.93;;
76935;SDS011;65881;52.438;16.744;2023-12-20T00:57:09;7.70;;;5.95;;
76935;SDS011;65881;52.438;16.744;2023-12-20T00:59:34;8.50;;;4.97;;
76935;SDS011;65881;52.438;16.744;2023-12-20T01:02:00;9.25;;;6.00;;
76935;SDS011;65881;52.438;16.744;2023-12-20T01:04:25;9.73;;;5.88;;
76935;SDS011;65881;52.438;16.744;2023-12-20T01:06:51;9.18;;;5.90;;
76935;SDS011;65881;52.438;16.744;2023-12-20T01:09:17;8.98;;;5.90;;
76935;SDS011;65881;52.438;16.744;2023-12-20T01:11:43;8.43;;;5.32;;
76935;SDS011;65881;52.438;16.744;2023-12-20T01:14:11;7.97;;;5.40;;
76935;SDS011;65881;52.438;16.744;2023-12-20T01:16:37;8.63;;;6.18;;
76935;SDS011;65881;52.438;16.744;2023-12-20T01:19:02;6.00;;;4.47;;
76935;SDS011;65881;52.438;16.744;2023-12-20T01:21:28;6.35;;;5.13;;
76935;SDS011;65881;52.438;16.744;2023-12-20T01:23:53;7.38;;;5.43;;
76935;SDS011;65881;52.438;16.744;2023-12-20T01:26:19;7.97;;;5.40;;
76935;SDS011;65881;52.438;16.744;2023-12-20T01:28:45;7.47;;;5.10;;
76935;SDS011;65881;52.438;16.744;2023-12-20T01:31:11;8.45;;;5.20;;
76935;SDS011;65881;52.438;16.744;2023-12-20T01:33:37;7.38;;;5.38;;
76935;SDS011;65881;52.438;16.744;2023-12-20T01:36:03;7.28;;;5.15;;
76935;SDS011;65881;52.438;16.744;2023-12-20T01:38:29;8.48;;;5.13;;
76935;SDS011;65881;52.438;16.744;2023-12-20T01:40:54;8.25;;;5.70;;
76935;SDS011;65881;52.438;16.744;2023-12-20T01:43:21;9.02;;;6.63;;
76935;SDS011;65881;52.438;16.744;2023-12-20T01:45:48;6.93;;;5.97;;
76935;SDS011;65881;52.438;16.744;2023-12-20T01:48:14;8.02;;;6.03;;
76935;SDS011;65881;52.438;16.744;2023-12-20T01:50:41;8.93;;;6.05;;
76935;SDS011;65881;52.438;16.744;2023-12-20T01:53:10;6.75;;;5.55;;
76935;SDS011;65881;52.438;16.744;2023-12-20T01:55:38;11.02;;;6.57;;
76935;SDS011;65881;52.438;16.744;2023-12-20T01:58:05;8.48;;;5.60;;
76935;SDS011;65881;52.438;16.744;2023-12-20T02:00:36;10.70;;;5.75;;
76935;SDS011;65881;52.438;16.744;2023-12-20T02:03:02;9.77;;;6.68;;
76935;SDS011;65881;52.438;16.744;2023-12-20T02:05:32;7.75;;;5.72;;
76935;SDS011;65881;52.438;16.744;2023-12-20T02:08:00;8.57;;;5.57;;
76935;SDS011;65881;52.438;16.744;2023-12-20T02:10:26;6.78;;;4.75;;
76935;SDS011;65881;52.438;16.744;2023-12-20T02:12:54;6.50;;;4.80;;
76935;SDS011;65881;52.438;16.744;2023-12-20T02:15:19;8.25;;;6.20;;
76935;SDS011;65881;52.438;16.744;2023-12-20T02:17:46;8.35;;;5.95;;
76935;SDS011;65881;52.438;16.744;2023-12-20T02:20:12;7.43;;;5.15;;
76935;SDS011;65881;52.438;16.744;2023-12-20T02:22:38;9.80;;;6.03;;
76935;SDS011;65881;52.438;16.744;2023-12-20T02:25:03;7.57;;;5.20;;
76935;SDS011;65881;52.438;16.744;2023-12-20T02:27:29;7.82;;;5.22;;
76935;SDS011;65881;52.438;16.744;2023-12-20T02:29:55;9.38;;;5.90;;
76935;SDS011;65881;52.438;16.744;2023-12-20T02:32:21;8.90;;;5.18;;
76935;SDS011;65881;52.438;16.744;2023-12-20T02:34:50;9.73;;;6.35;;
76935;SDS011;65881;52.438;16.744;2023-12-20T02:37:16;8.98;;;5.32;;
76935;SDS011;65881;52.438;16.744;2023-12-20T02:39:42;7.25;;;6.30;;
76935;SDS011;65881;52.438;16.744;2023-12-20T02:42:08;9.27;;;5.78;;
76935;SDS011;65881;52.438;16.744;2023-12-20T02:44:33;9.27;;;5.18;;
76935;SDS011;65881;52.438;16.744;2023-12-20T02:46:59;8.10;;;5.70;;
76935;SDS011;65881;52.438;16.744;2023-12-20T02:49:24;10.68;;;7.13;;
76935;SDS011;65881;52.438;16.744;2023-12-20T02:51:50;7.85;;;6.00;;
76935;SDS011;65881;52.438;16.744;2023-12-20T02:54:16;8.52;;;5.18;;
76935;SDS011;65881;52.438;16.744;2023-12-20T02:56:42;7.85;;;5.00;;
76935;SDS011;65881;52.438;16.744;2023-12-20T02:59:08;8.27;;;5.75;;
76935;SDS011;65881;52.438;16.744;2023-12-20T03:01:34;7.20;;;5.45;;
76935;SDS011;65881;52.438;16.744;2023-12-20T03:04:00;10.38;;;5.53;;
76935;SDS011;65881;52.438;16.744;2023-12-20T03:06:26;7.28;;;4.97;;
76935;SDS011;65881;52.438;16.744;2023-12-20T03:08:52;8.45;;;5.50;;
76935;SDS011;65881;52.438;16.744;2023-12-20T03:11:17;7.80;;;5.88;;
76935;SDS011;65881;52.438;16.744;2023-12-20T03:13:43;10.07;;;6.82;;
76935;SDS011;65881;52.438;16.744;2023-12-20T03:16:12;8.48;;;5.97;;
76935;SDS011;65881;52.438;16.744;2023-12-20T03:18:39;7.88;;;5.55;;
76935;SDS011;65881;52.438;16.744;2023-12-20T03:21:05;7.45;;;5.15;;
76935;SDS011;65881;52.438;16.744;2023-12-20T03:23:31;9.27;;;5.85;;
76935;SDS011;65881;52.438;16.744;2023-12-20T03:25:58;8.40;;;6.13;;
76935;SDS011;65881;52.438;16.744;2023-12-20T03:28:24;9.43;;;5.97;;
76935;SDS011;65881;52.438;16.744;2023-12-20T03:30:52;8.93;;;6.18;;
76935;SDS011;65881;52.438;16.744;2023-12-20T03:33:18;8.70;;;6.38;;
76935;SDS011;65881;52.438;16.744;2023-12-20T03:35:43;9.90;;;5.88;;
76935;SDS011;65881;52.438;16.744;2023-12-20T03:38:09;6.95;;;5.18;;
76935;SDS011;65881;52.438;16.744;2023-12-20T03:40:35;7.95;;;5.60;;
76935;SDS011;65881;52.438;16.744;2023-12-20T03:43:00;10.07;;;6.25;;
76935;SDS011;65881;52.438;16.744;2023-12-20T03:45:26;7.72;;;5.38;;
76935;SDS011;65881;52.438;16.744;2023-12-20T03:47:52;9.25;;;5.78;;
76935;SDS011;65881;52.438;16.744;2023-12-20T03:50:22;8.13;;;6.20;;
76935;SDS011;65881;52.438;16.744;2023-12-20T03:52:48;7.75;;;4.53;;
76935;SDS011;65881;52.438;16.744;2023-12-20T03:55:13;8.68;;;6.05;;
76935;SDS011;65881;52.438;16.744;2023-12-20T03:57:40;8.18;;;5.38;;
76935;SDS011;65881;52.438;16.744;2023-12-20T04:00:06;7.40;;;5.57;;
76935;SDS011;65881;52.438;16.744;2023-12-20T04:02:35;8.48;;;6.05;;
76935;SDS011;65881;52.438;16.744;2023-12-20T04:05:01;8.20;;;6.05;;
76935;SDS011;65881;52.438;16.744;2023-12-20T04:07:27;8.48;;;5.22;;
76935;SDS011;65881;52.438;16.744;2023-12-20T04:09:52;6.97;;;5.10;;
76935;SDS011;65881;52.438;16.744;2023-12-20T04:12:18;7.15;;;5.28;;
76935;SDS011;65881;52.438;16.744;2023-12-20T04:14:44;9.20;;;5.15;;
76935;SDS011;65881;52.438;16.744;2023-12-20T04:17:09;9.27;;;6.55;;
76935;SDS011;65881;52.438;16.744;2023-12-20T04:19:35;9.60;;;6.65;;
76935;SDS011;65881;52.438;16.744;2023-12-20T04:22:00;6.75;;;4.78;;
76935;SDS011;65881;52.438;16.744;2023-12-20T04:24:26;9.30;;;5.80;;
76935;SDS011;65881;52.438;16.744;2023-12-20T04:26:51;10.27;;;6.78;;
76935;SDS011;65881;52.438;16.744;2023-12-20T04:29:17;7.60;;;5.35;;
76935;SDS011;65881;52.438;16.744;2023-12-20T04:31:43;8.45;;;5.90;;
76935;SDS011;65881;52.438;16.744;2023-12-20T04:34:08;10.63;;;5.10;;
76935;SDS011;65881;52.438;16.744;2023-12-20T04:36:34;9.70;;;5.22;;
76935;SDS011;65881;52.438;16.744;2023-12-20T04:38:59;9.30;;;5.43;;
76935;SDS011;65881;52.438;16.744;2023-12-20T04:41:25;8.02;;;5.40;;
76935;SDS011;65881;52.438;16.744;2023-12-20T04:43:52;8.35;;;5.32;;
76935;SDS011;65881;52.438;16.744;2023-12-20T04:46:18;6.28;;;5.40;;
76935;SDS011;65881;52.438;16.744;2023-12-20T04:48:43;8.30;;;5.53;;
76935;SDS011;65881;52.438;16.744;2023-12-20T04:51:09;6.47;;;4.32;;
76935;SDS011;65881;52.438;16.744;2023-12-20T04:53:35;7.70;;;4.88;;
76935;SDS011;65881;52.438;16.744;2023-12-20T04:56:00;6.50;;;5.22;;
76935;SDS011;65881;52.438;16.744;2023-12-20T04:58:26;8.45;;;5.53;;
76935;SDS011;65881;52.438;16.744;2023-12-20T05:00:51;8.07;;;5.47;;
76935;SDS011;65881;52.438;16.744;2023-12-20T05:03:17;6.65;;;4.85;;
76935;SDS011;65881;52.438;16.744;2023-12-20T05:05:43;7.13;;;4.70;;
76935;SDS011;65881;52.438;16.744;2023-12-20T05:08:08;7.55;;;4.28;;
76935;SDS011;65881;52.438;16.744;2023-12-20T05:10:34;7.65;;;4.22;;
76935;SDS011;65881;52.438;16.744;2023-12-20T05:13:01;4.85;;;3.58;;
76935;SDS011;65881;52.438;16.744;2023-12-20T05:15:27;6.38;;;4.68;;
76935;SDS011;65881;52.438;16.744;2023-12-20T05:17:53;6.90;;;4.38;;
76935;SDS011;65881;52.438;16.744;2023-12-20T05:20:19;7.38;;;4.57;;
76935;SDS011;65881;52.438;16.744;2023-12-20T05:22:44;10.68;;;6.47;;
76935;SDS011;65881;52.438;16.744;2023-12-20T05:25:10;6.55;;;4.68;;
76935;SDS011;65881;52.438;16.744;2023-12-20T05:27:36;7.30;;;4.63;;
76935;SDS011;65881;52.438;16.744;2023-12-20T05:30:02;8.55;;;5.93;;
76935;SDS011;65881;52.438;16.744;2023-12-20T05:32:29;7.93;;;4.88;;
76935;SDS011;65881;52.438;16.744;2023-12-20T05:34:55;8.40;;;5.57;;
76935;SDS011;65881;52.438;16.744;2023-12-20T05:37:20;8.38;;;5.55;;
76935;SDS011;65881;52.438;16.744;2023-12-20T05:39:46;7.82;;;5.25;;
76935;SDS011;65881;52.438;16.744;2023-12-20T05:42:11;7.03;;;4.68;;
76935;SDS011;65881;52.438;16.744;2023-12-20T05:44:37;7.88;;;5.10;;
76935;SDS011;65881;52.438;16.744;2023-12-20T05:47:03;5.70;;;4.07;;
76935;SDS011;65881;52.438;16.744;2023-12-20T05:49:28;8.90;;;5.28;;
76935;SDS011;65881;52.438;16.744;2023-12-20T05:51:55;8.40;;;5.78;;
76935;SDS011;65881;52.438;16.744;2023-12-20T05:54:20;9.88;;;5.45;;
76935;SDS011;65881;52.438;16.744;2023-12-20T05:56:47;7.30;;;4.55;;
76935;SDS011;65881;52.438;16.744;2023-12-20T05:59:12;7.50;;;4.88;;
76935;SDS011;65881;52.438;16.744;2023-12-20T06:01:38;5.65;;;3.50;;
76935;SDS011;65881;52.438;16.744;2023-12-20T06:04:04;7.22;;;5.20;;
76935;SDS011;65881;52.438;16.744;2023-12-20T06:06:30;7.95;;;4.75;;
76935;SDS011;65881;52.438;16.744;2023-12-20T06:08:56;8.48;;;5.22;;
76935;SDS011;65881;52.438;16.744;2023-12-20T06:11:22;7.22;;;4.85;;
76935;SDS011;65881;52.438;16.744;2023-12-20T06:13:47;8.25;;;5.57;;
76935;SDS011;65881;52.438;16.744;2023-12-20T06:16:14;9.25;;;5.18;;
76935;SDS011;65881;52.438;16.744;2023-12-20T06:18:40;10.93;;;5.70;;
76935;SDS011;65881;52.438;16.744;2023-12-20T06:21:05;9.38;;;5.13;;
76935;SDS011;65881;52.438;16.744;2023-12-20T06:23:32;5.78;;;4.38;;
76935;SDS011;65881;52.438;16.744;2023-12-20T06:25:58;8.48;;;4.78;;
76935;SDS011;65881;52.438;16.744;2023-12-20T06:28:24;7.00;;;4.88;;
76935;SDS011;65881;52.438;16.744;2023-12-20T06:30:49;7.00;;;4.53;;
76935;SDS011;65881;52.438;16.744;2023-12-20T06:33:17;6.53;;;4.45;;
76935;SDS011;65881;52.438;16.744;2023-12-20T06:35:43;7.70;;;3.45;;
76935;SDS011;65881;52.438;16.744;2023-12-20T06:38:09;6.05;;;3.72;;
76935;SDS011;65881;52.438;16.744;2023-12-20T06:40:35;8.15;;;4.28;;
76935;SDS011;65881;52.438;16.744;2023-12-20T06:43:00;6.05;;;3.45;;
76935;SDS011;65881;52.438;16.744;2023-12-20T06:45:26;5.82;;;4.45;;
76935;SDS011;65881;52.438;16.744;2023-12-20T06:47:51;6.65;;;4.22;;
76935;SDS011;65881;52.438;16.744;2023-12-20T06:50:17;5.38;;;3.80;;
76935;SDS011;65881;52.438;16.744;2023-12-20T06:52:43;8.32;;;3.97;;
76935;SDS011;65881;52.438;16.744;2023-12-20T06:55:09;5.57;;;3.42;;
76935;SDS011;65881;52.438;16.744;2023-12-20T06:57:34;8.63;;;4.95;;
76935;SDS011;65881;52.438;16.744;2023-12-20T07:00:01;5.97;;;4.22;;
76935;SDS011;65881;52.438;16.744;2023-12-20T07:02:27;5.80;;;3.95;;
76935;SDS011;65881;52.438;16.744;2023-12-20T07:04:55;7.15;;;4.25;;
76935;SDS011;65881;52.438;16.744;2023-12-20T07:07:21;6.25;;;4.05;;
76935;SDS011;65881;52.438;16.744;2023-12-20T07:09:48;6.00;;;4.20;;
76935;SDS011;65881;52.438;16.744;2023-12-20T07:12:14;7.57;;;4.55;;
76935;SDS011;65881;52.438;16.744;2023-12-20T07:14:44;6.25;;;4.03;;
76935;SDS011;65881;52.438;16.744;2023-12-20T07:17:10;7.25;;;4.97;;
76935;SDS011;65881;52.438;16.744;2023-12-20T07:19:38;6.07;;;4.28;;
76935;SDS011;65881;52.438;16.744;2023-12-20T07:22:07;8.82;;;5.88;;
76935;SDS011;65881;52.438;16.744;2023-12-20T07:24:33;8.95;;;4.82;;
76935;SDS011;65881;52.438;16.744;2023-12-20T07:26:59;7.00;;;4.35;;
76935;SDS011;65881;52.438;16.744;2023-12-20T07:29:25;6.45;;;4.32;;
76935;SDS011;65881;52.438;16.744;2023-12-20T07:31:52;7.85;;;5.13;;
76935;SDS011;65881;52.438;16.744;2023-12-20T07:34:18;6.97;;;4.55;;
76935;SDS011;65881;52.438;16.744;2023-12-20T07:36:45;6.00;;;4.40;;
76935;SDS011;65881;52.438;16.744;2023-12-20T07:39:10;7.10;;;4.22;;
76935;SDS011;65881;52.438;16.744;2023-12-20T07:41:36;7.00;;;4.18;;
76935;SDS011;65881;52.438;16.744;2023-12-20T07:44:02;7.82;;;4.45;;
76935;SDS011;65881;52.438;16.744;2023-12-20T07:46:29;10.32;;;5.07;;
76935;SDS011;65881;52.438;16.744;2023-12-20T07:48:55;5.72;;;3.83;;
76935;SDS011;65881;52.438;16.744;2023-12-20T07:51:21;8.52;;;5.18;;
76935;SDS011;65881;52.438;16.744;2023-12-20T07:53:47;6.28;;;4.13;;
76935;SDS011;65881;52.438;16.744;2023-12-20T07:56:13;7.47;;;4.30;;
76935;SDS011;65881;52.438;16.744;2023-12-20T07:58:44;8.77;;;4.15;;
76935;SDS011;65881;52.438;16.744;2023-12-20T08:01:10;10.85;;;4.85;;
76935;SDS011;65881;52.438;16.744;2023-12-20T08:03:36;5.55;;;3.85;;
76935;SDS011;65881;52.438;16.744;2023-12-20T08:06:02;6.45;;;4.53;;
76935;SDS011;65881;52.438;16.744;2023-12-20T08:08:28;8.18;;;4.47;;
76935;SDS011;65881;52.438;16.744;2023-12-20T08:10:53;8.02;;;5.53;;
76935;SDS011;65881;52.438;16.744;2023-12-20T08:13:19;8.25;;;5.28;;
76935;SDS011;65881;52.438;16.744;2023-12-20T08:15:45;6.13;;;4.65;;
76935;SDS011;65881;52.438;16.744;2023-12-20T08:18:10;6.15;;;4.63;;
76935;SDS011;65881;52.438;16.744;2023-12-20T08:20:36;5.90;;;3.83;;
76935;SDS011;65881;52.438;16.744;2023-12-20T08:23:01;6.03;;;3.97;;
76935;SDS011;65881;52.438;16.744;2023-12-20T08:25:27;8.23;;;4.68;;
76935;SDS011;65881;52.438;16.744;2023-12-20T08:27:56;14.60;;;4.10;;
76935;SDS011;65881;52.438;16.744;2023-12-20T08:30:26;14.20;;;4.43;;
76935;SDS011;65881;52.438;16.744;2023-12-20T08:32:51;5.20;;;3.55;;
76935;SDS011;65881;52.438;16.744;2023-12-20T08:35:20;4.63;;;3.40;;
76935;SDS011;65881;52.438;16.744;2023-12-20T08:37:48;7.22;;;3.65;;
76935;SDS011;65881;52.438;16.744;2023-12-20T08:40:13;7.63;;;5.45;;
76935;SDS011;65881;52.438;16.744;2023-12-20T08:42:39;5.82;;;3.60;;
76935;SDS011;65881;52.438;16.744;2023-12-20T08:45:05;5.13;;;3.50;;
76935;SDS011;65881;52.438;16.744;2023-12-20T08:47:30;5.65;;;3.75;;
76935;SDS011;65881;52.438;16.744;2023-12-20T08:49:56;7.05;;;3.72;;
76935;SDS011;65881;52.438;16.744;2023-12-20T08:52:24;8.88;;;4.45;;
76935;SDS011;65881;52.438;16.744;2023-12-20T08:54:50;6.75;;;4.18;;
76935;SDS011;65881;52.438;16.744;2023-12-20T08:57:20;7.95;;;3.97;;
76935;SDS011;65881;52.438;16.744;2023-12-20T08:59:48;8.00;;;4.70;;
76935;SDS011;65881;52.438;16.744;2023-12-20T09:02:14;6.32;;;4.00;;
76935;SDS011;65881;52.438;16.744;2023-12-20T09:04:40;6.82;;;3.72;;
76935;SDS011;65881;52.438;16.744;2023-12-20T09:07:06;11.30;;;5.03;;
76935;SDS011;65881;52.438;16.744;2023-12-20T09:09:32;9.50;;;4.20;;
76935;SDS011;65881;52.438;16.744;2023-12-20T09:11:58;6.82;;;5.15;;
76935;SDS011;65881;52.438;16.744;2023-12-20T09:14:24;6.50;;;4.13;;
76935;SDS011;65881;52.438;16.744;2023-12-20T09:19:48;6.85;;;4.32;;
76935;SDS011;65881;52.438;16.744;2023-12-20T09:22:15;5.38;;;3.72;;
76935;SDS011;65881;52.438;16.744;2023-12-20T09:24:40;5.13;;;4.63;;
76935;SDS011;65881;52.438;16.744;2023-12-20T09:27:06;8.40;;;4.57;;
76935;SDS011;65881;52.438;16.744;2023-12-20T09:29:32;9.02;;;4.40;;
76935;SDS011;65881;52.438;16.744;2023-12-20T09:31:57;5.40;;;3.28;;
76935;SDS011;65881;52.438;16.744;2023-12-20T09:34:23;5.53;;;4.10;;
76935;SDS011;65881;52.438;16.744;2023-12-20T09:36:50;5.78;;;4.18;;
76935;SDS011;65881;52.438;16.744;2023-12-20T09:39:16;8.00;;;4.13;;
76935;SDS011;65881;52.438;16.744;2023-12-20T09:41:51;9.77;;;4.55;;
76935;SDS011;65881;52.438;16.744;2023-12-20T09:44:28;6.82;;;4.05;;
76935;SDS011;65881;52.438;16.744;2023-12-20T09:47:07;5.97;;;3.72;;
76935;SDS011;65881;52.438;16.744;2023-12-20T09:49:33;6.88;;;5.05;;
76935;SDS011;65881;52.438;16.744;2023-12-20T09:52:00;10.73;;;5.70;;
76935;SDS011;65881;52.438;16.744;2023-12-20T09:54:26;8.38;;;4.57;;
76935;SDS011;65881;52.438;16.744;2023-12-20T09:56:53;9.07;;;4.50;;
76935;SDS011;65881;52.438;16.744;2023-12-20T09:59:19;6.07;;;4.15;;
76935;SDS011;65881;52.438;16.744;2023-12-20T10:01:45;9.88;;;5.03;;
76935;SDS011;65881;52.438;16.744;2023-12-20T10:04:11;5.38;;;3.88;;
76935;SDS011;65881;52.438;16.744;2023-12-20T10:06:41;4.68;;;4.03;;
76935;SDS011;65881;52.438;16.744;2023-12-20T10:09:09;5.40;;;3.38;;
76935;SDS011;65881;52.438;16.744;2023-12-20T10:11:36;6.13;;;3.45;;
76935;SDS011;65881;52.438;16.744;2023-12-20T10:14:02;7.82;;;4.53;;
76935;SDS011;65881;52.438;16.744;2023-12-20T10:16:28;9.15;;;3.65;;
76935;SDS011;65881;52.438;16.744;2023-12-20T10:18:54;7.60;;;4.50;;
76935;SDS011;65881;52.438;16.744;2023-12-20T10:21:21;7.82;;;4.55;;
76935;SDS011;65881;52.438;16.744;2023-12-20T10:23:48;7.80;;;4.22;;
76935;SDS011;65881;52.438;16.744;2023-12-20T10:26:21;5.18;;;4.13;;
76935;SDS011;65881;52.438;16.744;2023-12-20T10:28:55;8.90;;;3.97;;
76935;SDS011;65881;52.438;16.744;2023-12-20T10:33:53;7.68;;;4.05;;
76935;SDS011;65881;52.438;16.744;2023-12-20T10:36:21;5.07;;;3.47;;
76935;SDS011;65881;52.438;16.744;2023-12-20T10:38:48;4.93;;;3.13;;
76935;SDS011;65881;52.438;16.744;2023-12-20T10:41:17;6.45;;;3.53;;
76935;SDS011;65881;52.438;16.744;2023-12-20T10:43:49;8.23;;;3.58;;
76935;SDS011;65881;52.438;16.744;2023-12-20T10:46:16;3.75;;;2.53;;
76935;SDS011;65881;52.438;16.744;2023-12-20T10:48:44;5.32;;;2.97;;
76935;SDS011;65881;52.438;16.744;2023-12-20T10:51:11;4.60;;;2.85;;
76935;SDS011;65881;52.438;16.744;2023-12-20T10:53:42;5.50;;;2.55;;
76935;SDS011;65881;52.438;16.744;2023-12-20T10:56:09;8.05;;;2.92;;
76935;SDS011;65881;52.438;16.744;2023-12-20T10:58:41;7.22;;;2.85;;
76935;SDS011;65881;52.438;16.744;2023-12-20T11:01:08;8.90;;;3.65;;
76935;SDS011;65881;52.438;16.744;2023-12-20T11:03:34;5.72;;;3.25;;
76935;SDS011;65881;52.438;16.744;2023-12-20T11:06:17;5.47;;;3.10;;
76935;SDS011;65881;52.438;16.744;2023-12-20T11:14:35;4.72;;;3.13;;
76935;SDS011;65881;52.438;16.744;2023-12-20T11:20:16;7.38;;;2.85;;
76935;SDS011;65881;52.438;16.744;2023-12-20T11:22:32;11.35;;;3.47;;
76935;SDS011;65881;52.438;16.744;2023-12-20T11:25:03;5.30;;;3.30;;
76935;SDS011;65881;52.438;16.744;2023-12-20T11:27:35;6.80;;;4.55;;
76935;SDS011;65881;52.438;16.744;2023-12-20T11:30:10;9.70;;;3.17;;
76935;SDS011;65881;52.438;16.744;2023-12-20T11:32:36;4.43;;;3.13;;
76935;SDS011;65881;52.438;16.744;2023-12-20T11:37:37;7.00;;;3.33;;
76935;SDS011;65881;52.438;16.744;2023-12-20T11:40:08;7.68;;;3.72;;
76935;SDS011;65881;52.438;16.744;2023-12-20T11:42:40;16.13;;;3.67;;
76935;SDS011;65881;52.438;16.744;2023-12-20T11:45:08;5.65;;;3.25;;
76935;SDS011;65881;52.438;16.744;2023-12-20T11:47:34;12.10;;;4.53;;
76935;SDS011;65881;52.438;16.744;2023-12-20T11:50:00;7.55;;;3.25;;
76935;SDS011;65881;52.438;16.744;2023-12-20T11:52:28;5.28;;;3.65;;
76935;SDS011;65881;52.438;16.744;2023-12-20T11:54:55;6.85;;;3.92;;
76935;SDS011;65881;52.438;16.744;2023-12-20T11:57:20;6.10;;;3.25;;
76935;SDS011;65881;52.438;16.744;2023-12-20T11:59:46;6.22;;;3.42;;
76935;SDS011;65881;52.438;16.744;2023-12-20T12:02:12;7.20;;;4.53;;
76935;SDS011;65881;52.438;16.744;2023-12-20T12:04:40;7.40;;;3.40;;
76935;SDS011;65881;52.438;16.744;2023-12-20T12:07:06;7.15;;;3.00;;
76935;SDS011;65881;52.438;16.744;2023-12-20T12:09:32;11.45;;;3.35;;
76935;SDS011;65881;52.438;16.744;2023-12-20T12:11:58;15.60;;;4.13;;
76935;SDS011;65881;52.438;16.744;2023-12-20T12:14:24;4.00;;;3.10;;
76935;SDS011;65881;52.438;16.744;2023-12-20T12:16:50;6.32;;;3.20;;
76935;SDS011;65881;52.438;16.744;2023-12-20T12:19:24;6.78;;;3.53;;
76935;SDS011;65881;52.438;16.744;2023-12-20T12:21:50;9.15;;;3.42;;
76935;SDS011;65881;52.438;16.744;2023-12-20T12:24:19;4.90;;;3.35;;
76935;SDS011;65881;52.438;16.744;2023-12-20T12:26:50;11.95;;;3.72;;
76935;SDS011;65881;52.438;16.744;2023-12-20T12:29:16;3.60;;;3.13;;
76935;SDS011;65881;52.438;16.744;2023-12-20T12:31:42;8.82;;;3.13;;
76935;SDS011;65881;52.438;16.744;2023-12-20T12:34:11;3.42;;;3.00;;
76935;SDS011;65881;52.438;16.744;2023-12-20T12:36:36;5.00;;;3.58;;
76935;SDS011;65881;52.438;16.744;2023-12-20T12:39:03;8.93;;;3.60;;
76935;SDS011;65881;52.438;16.744;2023-12-20T12:41:30;10.07;;;4.07;;
76935;SDS011;65881;52.438;16.744;2023-12-20T12:43:55;4.07;;;2.85;;
76935;SDS011;65881;52.438;16.744;2023-12-20T12:46:21;12.73;;;4.45;;
76935;SDS011;65881;52.438;16.744;2023-12-20T12:48:47;9.90;;;3.97;;
76935;SDS011;65881;52.438;16.744;2023-12-20T12:51:14;7.50;;;3.25;;
76935;SDS011;65881;52.438;16.744;2023-12-20T12:53:39;7.93;;;4.18;;
76935;SDS011;65881;52.438;16.744;2023-12-20T12:56:05;6.75;;;3.60;;
76935;SDS011;65881;52.438;16.744;2023-12-20T12:58:32;6.43;;;3.20;;
76935;SDS011;65881;52.438;16.744;2023-12-20T13:01:00;9.60;;;3.67;;
76935;SDS011;65881;52.438;16.744;2023-12-20T13:03:26;6.85;;;2.85;;
76935;SDS011;65881;52.438;16.744;2023-12-20T13:05:51;8.88;;;3.97;;
76935;SDS011;65881;52.438;16.744;2023-12-20T13:08:18;12.73;;;4.15;;
76935;SDS011;65881;52.438;16.744;2023-12-20T13:10:44;10.93;;;4.18;;
76935;SDS011;65881;52.438;16.744;2023-12-20T13:13:09;6.10;;;2.90;;
76935;SDS011;65881;52.438;16.744;2023-12-20T13:15:35;6.82;;;3.58;;
76935;SDS011;65881;52.438;16.744;2023-12-20T13:18:00;9.07;;;3.33;;
76935;SDS011;65881;52.438;16.744;2023-12-20T13:20:26;5.20;;;3.00;;
76935;SDS011;65881;52.438;16.744;2023-12-20T13:22:52;17.88;;;3.63;;
76935;SDS011;65881;52.438;16.744;2023-12-20T13:25:17;11.43;;;3.30;;
76935;SDS011;65881;52.438;16.744;2023-12-20T13:27:43;4.90;;;2.92;;
76935;SDS011;65881;52.438;16.744;2023-12-20T13:30:09;9.13;;;4.40;;
76935;SDS011;65881;52.438;16.744;2023-12-20T13:32:35;4.35;;;3.72;;
76935;SDS011;65881;52.438;16.744;2023-12-20T13:35:01;5.43;;;3.15;;
76935;SDS011;65881;52.438;16.744;2023-12-20T13:37:26;8.75;;;3.55;;
76935;SDS011;65881;52.438;16.744;2023-12-20T13:39:52;8.23;;;3.00;;
76935;SDS011;65881;52.438;16.744;2023-12-20T13:42:17;10.77;;;3.58;;
76935;SDS011;65881;52.438;16.744;2023-12-20T13:44:45;10.05;;;3.58;;
76935;SDS011;65881;52.438;16.744;2023-12-20T13:47:11;9.48;;;3.50;;
76935;SDS011;65881;52.438;16.744;2023-12-20T13:49:37;7.03;;;3.22;;
76935;SDS011;65881;52.438;16.744;2023-12-20T13:52:03;7.05;;;3.28;;
76935;SDS011;65881;52.438;16.744;2023-12-20T13:54:29;7.95;;;3.47;;
76935;SDS011;65881;52.438;16.744;2023-12-20T13:56:55;9.82;;;3.28;;
76935;SDS011;65881;52.438;16.744;2023-12-20T13:59:22;5.05;;;3.10;;
76935;SDS011;65881;52.438;16.744;2023-12-20T14:01:48;8.82;;;4.53;;
76935;SDS011;65881;52.438;16.744;2023-12-20T14:04:15;6.78;;;3.05;;
76935;SDS011;65881;52.438;16.744;2023-12-20T14:06:41;7.35;;;4.38;;
76935;SDS011;65881;52.438;16.744;2023-12-20T14:09:07;7.13;;;2.63;;
76935;SDS011;65881;52.438;16.744;2023-12-20T14:11:33;9.45;;;4.13;;
76935;SDS011;65881;52.438;16.744;2023-12-20T14:13:58;7.10;;;3.38;;
76935;SDS011;65881;52.438;16.744;2023-12-20T14:16:24;9.10;;;3.05;;
76935;SDS011;65881;52.438;16.744;2023-12-20T14:18:50;6.93;;;3.15;;
76935;SDS011;65881;52.438;16.744;2023-12-20T14:21:17;5.55;;;3.30;;
76935;SDS011;65881;52.438;16.744;2023-12-20T14:23:43;3.58;;;2.22;;
76935;SDS011;65881;52.438;16.744;2023-12-20T14:26:08;8.32;;;3.35;;
76935;SDS011;65881;52.438;16.744;2023-12-20T14:28:40;8.75;;;3.65;;
76935;SDS011;65881;52.438;16.744;2023-12-20T14:31:06;5.15;;;3.35;;
76935;SDS011;65881;52.438;16.744;2023-12-20T14:33:33;18.73;;;3.60;;
76935;SDS011;65881;52.438;16.744;2023-12-20T14:35:58;5.78;;;3.58;;
76935;SDS011;65881;52.438;16.744;2023-12-20T14:38:24;4.47;;;3.20;;
76935;SDS011;65881;52.438;16.744;2023-12-20T14:40:50;6.47;;;3.55;;
76935;SDS011;65881;52.438;16.744;2023-12-20T14:43:16;7.43;;;3.45;;
76935;SDS011;65881;52.438;16.744;2023-12-20T14:45:42;12.45;;;3.55;;